Trenton, Utah
Current Conditions -  °F | °C
As of 11:51 PM on Sunday 23 Nov 2014 (Local Time) from KLGU Reporting Station
Overcast Overcast  
Wind Chill: 29°   Ceiling: 3800
Heat Index: 35°   Visibility: 10mi
Dew Point: 23°   Wind: 7mph
Humidity: 61%   Direction: 120°ESE
Pressure: 30.17"   Gusts: NA
Location:  41.92°N, 111.94°W
Report Text: KLGU 240651Z AUTO 12006KT 10SM BKN038 BKN044 OVC060 02/M05 A3017 RMK AO2 SNB21E37 SLP224 P0000 T00171050 400441006
Loading
Personal Weather Stations






























Interactive Weather Map New forecast layout! Learn more

10-Day Weather Forecast

Advertisements
Track Severe Weather on mobile